createdAt,value
2022-12-19T00:01:08.760Z,56.70
2022-12-19T00:03:36.795Z,54.87
2022-12-19T00:06:04.666Z,54.83
2022-12-19T00:08:32.136Z,58.80
2022-12-19T00:11:01.089Z,48.40
2022-12-19T00:13:30.055Z,48.83
2022-12-19T00:16:02.260Z,51.17
2022-12-19T00:18:29.587Z,56.50
2022-12-19T00:20:57.711Z,54.43
2022-12-19T00:23:24.975Z,58.90
2022-12-19T00:25:52.271Z,59.58
2022-12-19T00:28:19.540Z,59.97
2022-12-19T00:30:48.690Z,56.77
2022-12-19T00:33:16.036Z,61.30
2022-12-19T00:35:43.382Z,56.63
2022-12-19T00:38:11.250Z,56.13
2022-12-19T00:40:38.506Z,53.33
2022-12-19T00:43:07.740Z,53.60
2022-12-19T00:45:38.756Z,57.20
2022-12-19T00:48:06.364Z,54.80
2022-12-19T00:50:34.843Z,56.57
2022-12-19T00:53:02.351Z,53.63
2022-12-19T00:55:48.184Z,60.40
2022-12-19T00:58:15.471Z,51.00
2022-12-19T01:00:42.882Z,43.37
2022-12-19T01:03:10.624Z,43.07
2022-12-19T01:05:38.383Z,62.07
2022-12-19T01:08:09.363Z,65.23
2022-12-19T01:10:36.635Z,53.70
2022-12-19T01:13:03.962Z,59.87
2022-12-19T01:15:31.226Z,65.50
2022-12-19T01:17:58.539Z,59.83
2022-12-19T01:20:29.912Z,61.50
2022-12-19T01:22:58.582Z,60.13
2022-12-19T01:25:27.607Z,56.50
2022-12-19T01:27:55.351Z,58.13
2022-12-19T01:30:22.614Z,50.30
2022-12-19T01:32:50.332Z,54.50
2022-12-19T01:35:22.098Z,49.93
2022-12-19T01:37:50.829Z,61.70
2022-12-19T01:40:18.499Z,50.53
2022-12-19T01:42:45.761Z,65.10
2022-12-19T01:45:27.668Z,54.83
2022-12-19T01:48:12.339Z,60.07
2022-12-19T01:50:56.646Z,53.43
2022-12-19T01:53:35.235Z,50.00
2022-12-19T01:56:09.968Z,50.47
2022-12-19T01:58:39.032Z,53.40
2022-12-19T02:01:06.809Z,58.13
2022-12-19T02:03:36.197Z,52.17
2022-12-19T02:06:05.160Z,53.20
2022-12-19T02:08:32.891Z,63.80
2022-12-19T02:11:02.287Z,57.97
2022-12-19T02:13:30.452Z,60.97
2022-12-19T02:16:06.869Z,65.63
2022-12-19T02:18:47.554Z,66.70
2022-12-19T02:21:20.919Z,49.90
2022-12-19T02:23:57.964Z,58.67
2022-12-19T02:26:40.642Z,58.07
2022-12-19T02:29:15.054Z,58.17
2022-12-19T02:31:47.534Z,53.30
2022-12-19T02:34:19.378Z,60.63
2022-12-19T02:36:58.397Z,57.30
2022-12-19T02:39:30.579Z,55.73
2022-12-19T02:42:01.970Z,58.53
2022-12-19T02:44:29.323Z,55.93
2022-12-19T02:46:58.893Z,55.67
2022-12-19T02:49:31.036Z,57.07
2022-12-19T02:52:09.381Z,52.47
2022-12-19T02:54:37.754Z,57.13
2022-12-19T02:57:28.175Z,54.73
2022-12-19T03:00:03.005Z,53.87
2022-12-19T03:02:38.865Z,46.83
2022-12-19T03:05:11.560Z,50.13
2022-12-19T03:07:50.621Z,47.07
2022-12-19T03:10:32.425Z,53.83
2022-12-19T03:13:05.197Z,55.97
2022-12-19T03:15:33.321Z,50.17
2022-12-19T03:18:01.318Z,53.47
2022-12-19T03:20:46.687Z,51.57
2022-12-19T03:23:14.532Z,51.70
2022-12-19T03:25:42.431Z,51.60
2022-12-19T03:28:12.948Z,49.87
2022-12-19T03:30:41.845Z,53.40
2022-12-19T03:33:10.895Z,60.10
2022-12-19T03:35:38.614Z,52.33
2022-12-19T03:38:06.597Z,50.00
2022-12-19T03:40:35.196Z,46.50
2022-12-19T03:43:11.905Z,51.20
2022-12-19T03:45:54.479Z,49.40
2022-12-19T03:48:30.884Z,55.27
2022-12-19T03:51:10.164Z,50.90
2022-12-19T03:53:42.517Z,54.70
2022-12-19T03:56:16.000Z,56.90
2022-12-19T03:58:46.379Z,55.30
2022-12-19T04:01:13.928Z,55.43
2022-12-19T04:03:41.299Z,65.37
2022-12-19T04:06:09.113Z,59.47
2022-12-19T04:08:36.724Z,50.87
2022-12-19T04:11:10.567Z,53.50
2022-12-19T04:13:43.957Z,54.77
2022-12-19T04:16:11.246Z,51.50
2022-12-19T04:18:40.241Z,50.23
2022-12-19T04:21:18.304Z,56.20
2022-12-19T04:23:51.724Z,56.23
2022-12-19T04:26:20.415Z,48.60
2022-12-19T04:28:49.229Z,66.67
2022-12-19T04:31:16.939Z,51.63
2022-12-19T04:33:44.257Z,57.23
2022-12-19T04:36:11.741Z,50.57
2022-12-19T04:38:39.033Z,51.80
2022-12-19T04:41:06.422Z,52.23
2022-12-19T04:43:33.913Z,48.20
2022-12-19T04:46:01.197Z,51.63
2022-12-19T04:48:28.540Z,47.10
2022-12-19T04:50:56.226Z,45.07
2022-12-19T04:53:23.712Z,48.50
2022-12-19T04:55:50.991Z,45.83
2022-12-19T04:58:21.825Z,46.53
2022-12-19T05:00:49.831Z,49.80
2022-12-19T05:03:17.126Z,47.53
2022-12-19T05:05:44.442Z,50.45
2022-12-19T05:08:11.965Z,54.33
2022-12-19T05:10:39.411Z,56.20
2022-12-19T05:13:07.620Z,52.60
2022-12-19T05:15:34.982Z,49.73
2022-12-19T05:18:02.227Z,55.83
2022-12-19T05:20:29.773Z,49.80
2022-12-19T05:22:57.099Z,58.80
2022-12-19T05:25:24.399Z,55.27
2022-12-19T05:27:51.759Z,57.10
2022-12-19T05:30:19.094Z,56.23
2022-12-19T05:32:46.476Z,53.27
2022-12-19T05:35:13.875Z,57.27
2022-12-19T05:37:41.142Z,57.80
2022-12-19T05:40:08.753Z,55.63
2022-12-19T05:42:35.976Z,53.40
2022-12-19T05:45:03.252Z,62.43
2022-12-19T05:47:30.909Z,59.10
2022-12-19T05:49:58.341Z,51.90
2022-12-19T05:52:25.615Z,61.03
2022-12-19T05:54:53.242Z,56.70
2022-12-19T05:57:20.608Z,61.00
2022-12-19T05:59:47.858Z,61.10
2022-12-19T06:02:15.232Z,57.40
2022-12-19T06:04:42.674Z,62.83
2022-12-19T06:07:09.963Z,58.03
2022-12-19T06:09:37.280Z,63.30
2022-12-19T06:12:04.644Z,54.77
2022-12-19T06:14:31.939Z,56.20
2022-12-19T06:16:59.244Z,53.37
2022-12-19T06:19:26.608Z,61.63
2022-12-19T06:21:53.856Z,59.13
2022-12-19T06:24:21.975Z,68.13
2022-12-19T06:26:49.899Z,55.17
2022-12-19T06:29:17.385Z,56.07
2022-12-19T06:31:44.890Z,71.60
2022-12-19T06:34:27.106Z,61.80
2022-12-19T06:37:01.212Z,63.27
2022-12-19T06:39:31.650Z,57.17
2022-12-19T06:42:17.751Z,63.03
2022-12-19T06:44:45.047Z,61.30
2022-12-19T06:47:12.343Z,64.93
2022-12-19T06:49:39.626Z,48.47
2022-12-19T06:52:09.273Z,63.57
2022-12-19T06:54:36.692Z,56.03
2022-12-19T06:57:04.107Z,62.63
2022-12-19T06:59:31.509Z,56.87
2022-12-19T07:02:17.324Z,62.17
2022-12-19T07:04:47.797Z,63.03
2022-12-19T07:07:15.410Z,56.70
2022-12-19T07:09:42.702Z,66.70
2022-12-19T07:12:10.022Z,61.10
2022-12-19T07:14:37.299Z,65.30
2022-12-19T07:17:05.049Z,65.53
2022-12-19T07:19:33.484Z,60.67
2022-12-19T07:22:01.603Z,61.23
2022-12-19T07:24:29.161Z,62.07
2022-12-19T07:26:57.017Z,57.50
2022-12-19T07:29:24.333Z,54.83
2022-12-19T07:31:51.657Z,65.00
2022-12-19T07:34:19.031Z,57.73
2022-12-19T07:36:46.334Z,63.33
2022-12-19T07:39:13.661Z,67.17
2022-12-19T07:41:41.099Z,70.33
2022-12-19T07:44:08.637Z,77.35
2022-12-19T07:46:35.978Z,74.37
2022-12-19T07:49:03.414Z,65.83
2022-12-19T07:51:30.786Z,83.18
2022-12-19T07:53:58.352Z,73.87
2022-12-19T07:56:26.983Z,75.20
2022-12-19T07:58:54.455Z,69.83
2022-12-19T08:01:21.840Z,70.80
2022-12-19T08:03:49.196Z,68.47
2022-12-19T08:06:16.569Z,68.93
2022-12-19T08:08:43.851Z,60.53
2022-12-19T08:11:11.152Z,59.60
2022-12-19T08:13:43.290Z,57.10
2022-12-19T08:16:13.786Z,65.33
2022-12-19T08:18:41.166Z,57.40
2022-12-19T08:21:09.232Z,60.07
2022-12-19T08:23:36.566Z,55.07
2022-12-19T08:26:05.047Z,55.70
2022-12-19T08:28:33.761Z,52.97
2022-12-19T08:31:05.966Z,57.03
2022-12-19T08:33:33.256Z,53.73
2022-12-19T08:36:04.259Z,41.77
2022-12-19T08:38:31.792Z,52.43
2022-12-19T08:40:59.061Z,58.23
2022-12-19T08:43:27.567Z,52.87
2022-12-19T08:45:55.035Z,40.17
2022-12-19T08:48:23.769Z,41.57
2022-12-19T08:50:52.166Z,44.40
2022-12-19T08:53:25.815Z,43.03
2022-12-19T08:55:57.606Z,41.40
2022-12-19T08:58:25.160Z,40.60
2022-12-19T09:01:01.730Z,44.67
2022-12-19T09:03:36.736Z,40.53
2022-12-19T09:06:19.399Z,43.93
2022-12-19T09:08:47.077Z,41.67
2022-12-19T09:11:15.887Z,48.72
2022-12-19T09:13:43.815Z,36.53
2022-12-19T09:16:13.836Z,38.97
2022-12-19T09:18:47.891Z,36.97
2022-12-19T09:21:15.713Z,38.03
2022-12-19T09:23:43.458Z,39.17
2022-12-19T09:26:13.951Z,43.53
2022-12-19T09:28:41.835Z,33.27
2022-12-19T09:31:13.745Z,35.80
2022-12-19T09:33:43.635Z,30.10
2022-12-19T09:36:29.187Z,35.43
2022-12-19T09:38:57.345Z,31.23
2022-12-19T09:41:33.974Z,32.80
2022-12-19T09:44:10.955Z,29.07
2022-12-19T09:46:44.821Z,32.40
2022-12-19T09:49:13.841Z,28.73
2022-12-19T09:51:44.189Z,24.67
2022-12-19T09:54:12.148Z,27.20
2022-12-19T09:56:45.686Z,27.80
2022-12-19T09:59:17.008Z,30.77
2022-12-19T10:01:55.340Z,28.60
2022-12-19T10:04:24.899Z,23.50
2022-12-19T10:07:21.975Z,23.50
2022-12-19T10:12:12.718Z,25.47
2022-12-19T10:12:47.597Z,24.27
2022-12-19T10:15:30.823Z,23.23
2022-12-19T10:18:21.459Z,24.70
2022-12-19T10:20:56.558Z,24.23
2022-12-19T10:23:30.380Z,24.47
2022-12-19T10:26:04.336Z,25.10
2022-12-19T10:28:50.690Z,23.20
2022-12-19T10:31:22.931Z,24.53
2022-12-19T10:33:58.705Z,23.57
2022-12-19T10:36:42.315Z,20.00
2022-12-19T10:39:21.077Z,24.93
2022-12-19T10:41:51.399Z,19.93
2022-12-19T10:44:19.064Z,21.50
2022-12-19T10:46:47.725Z,20.77
2022-12-19T10:49:16.689Z,20.30
2022-12-19T10:51:54.394Z,23.67
2022-12-19T10:54:23.218Z,24.53
2022-12-19T10:56:50.567Z,23.60
2022-12-19T10:59:18.718Z,23.37
2022-12-19T11:02:00.425Z,23.73
2022-12-19T11:04:33.850Z,23.47
2022-12-19T11:07:04.535Z,23.90
2022-12-19T11:09:36.531Z,18.00
2022-12-19T11:16:46.633Z,16.93
2022-12-19T11:20:02.735Z,15.60
2022-12-19T11:26:32.471Z,18.50
2022-12-19T11:29:41.738Z,17.93
2022-12-19T11:29:45.592Z,19.63
2022-12-19T11:30:44.240Z,15.33
2022-12-19T11:32:42.925Z,19.73
2022-12-19T11:35:24.469Z,18.47
2022-12-19T11:37:55.489Z,14.83
2022-12-19T11:40:23.384Z,15.63
2022-12-19T11:43:25.662Z,17.00
2022-12-19T11:45:45.948Z,14.10
2022-12-19T11:48:28.851Z,16.73
2022-12-19T11:51:08.171Z,16.70
2022-12-19T11:53:41.068Z,16.50
2022-12-19T11:56:17.804Z,13.37
2022-12-19T11:58:48.186Z,15.40
2022-12-19T12:01:18.654Z,16.90
2022-12-19T12:04:01.849Z,17.47
2022-12-19T12:06:33.062Z,15.10
2022-12-19T12:12:43.414Z,16.13
2022-12-19T12:19:26.337Z,17.87
2022-12-19T12:26:02.017Z,14.93
2022-12-19T12:31:05.599Z,18.47
2022-12-19T12:31:16.818Z,14.97
2022-12-19T12:31:50.267Z,24.53
2022-12-19T12:31:51.871Z,19.93
2022-12-19T12:32:03.749Z,14.07
2022-12-19T12:35:33.127Z,20.70
2022-12-19T12:38:48.031Z,18.50
2022-12-19T12:41:42.324Z,14.43
2022-12-19T12:44:12.234Z,18.17
2022-12-19T12:46:58.648Z,16.97
2022-12-19T12:49:40.931Z,15.67
2022-12-19T12:52:14.497Z,19.27
2022-12-19T12:54:45.529Z,17.63
2022-12-19T12:57:39.031Z,17.50
2022-12-19T13:00:19.264Z,17.87
2022-12-19T13:02:48.542Z,18.67
2022-12-19T13:05:24.739Z,18.10
2022-12-19T13:07:55.487Z,18.33
2022-12-19T13:10:26.736Z,18.93
2022-12-19T13:13:02.077Z,21.57
2022-12-19T13:15:29.819Z,17.37
2022-12-19T13:17:57.053Z,17.80
2022-12-19T13:20:25.093Z,16.37
2022-12-19T13:22:58.322Z,16.47
2022-12-19T13:25:28.753Z,18.33
2022-12-19T13:27:58.534Z,16.03
2022-12-19T13:30:26.821Z,17.60
2022-12-19T13:33:03.521Z,19.53
2022-12-19T13:36:56.600Z,17.70
2022-12-19T13:39:58.421Z,18.83
2022-12-19T13:41:44.662Z,19.73
2022-12-19T13:44:12.331Z,19.17
2022-12-19T13:46:42.567Z,16.97
2022-12-19T13:49:19.908Z,14.43
2022-12-19T13:51:53.382Z,19.37
2022-12-19T13:54:26.808Z,20.50
2022-12-19T13:56:54.988Z,19.43
2022-12-19T13:59:23.899Z,22.03
2022-12-19T14:01:53.301Z,19.03
2022-12-19T14:04:29.317Z,16.17
2022-12-19T14:07:01.724Z,18.17
2022-12-19T14:11:30.476Z,18.90
2022-12-19T14:13:49.817Z,24.20
2022-12-19T14:15:34.390Z,23.10
2022-12-19T14:18:08.292Z,22.83
2022-12-19T14:22:01.897Z,23.00
2022-12-19T14:23:42.692Z,21.87
2022-12-19T14:28:25.081Z,25.53
2022-12-19T14:29:06.571Z,20.50
2022-12-19T14:31:35.712Z,24.80
2022-12-19T14:36:52.943Z,18.67
2022-12-19T14:39:28.779Z,26.57
2022-12-19T14:43:55.874Z,26.07
2022-12-19T14:52:35.337Z,24.97
2022-12-19T14:54:07.009Z,21.87
2022-12-19T14:54:13.937Z,21.73
2022-12-19T14:57:00.228Z,18.37
2022-12-19T14:59:35.170Z,23.80
2022-12-19T15:02:09.521Z,19.30
2022-12-19T15:04:52.764Z,18.43
2022-12-19T15:07:22.805Z,21.97
2022-12-19T15:11:02.370Z,26.77
2022-12-19T15:14:50.871Z,19.87
2022-12-19T15:16:02.181Z,23.33
2022-12-19T15:18:39.318Z,20.00
2022-12-19T15:21:08.128Z,19.50
2022-12-19T15:23:35.747Z,17.23
2022-12-19T15:26:06.591Z,19.20
2022-12-19T15:28:39.428Z,20.27
2022-12-19T15:31:11.294Z,18.43
2022-12-19T15:33:59.792Z,23.70
2022-12-19T15:36:25.944Z,25.20
2022-12-19T15:38:53.242Z,22.23
2022-12-19T15:41:22.748Z,20.77
2022-12-19T15:44:07.513Z,22.50
2022-12-19T15:46:34.914Z,26.20
2022-12-19T15:49:02.401Z,26.00
2022-12-19T15:51:29.765Z,22.27
2022-12-19T15:54:04.114Z,17.73
2022-12-19T15:56:53.572Z,26.87
2022-12-19T15:59:36.446Z,21.67
2022-12-19T16:02:13.660Z,18.90
2022-12-19T16:04:41.226Z,19.47
2022-12-19T16:07:18.763Z,20.20
2022-12-19T16:09:48.905Z,18.07
2022-12-19T16:12:17.438Z,20.33
2022-12-19T16:14:45.870Z,18.40
2022-12-19T16:17:15.558Z,22.30
2022-12-19T16:19:42.883Z,24.67
2022-12-19T16:22:16.939Z,20.20
2022-12-19T16:24:44.248Z,22.47
2022-12-19T16:27:14.402Z,21.47
2022-12-19T16:29:42.028Z,19.67
2022-12-19T16:32:12.452Z,23.37
2022-12-19T16:34:41.375Z,19.97
2022-12-19T16:37:08.676Z,19.93
2022-12-19T16:39:36.142Z,19.23
2022-12-19T16:42:11.678Z,18.43
2022-12-19T16:44:39.096Z,22.03
2022-12-19T16:47:17.603Z,18.80
2022-12-19T16:49:45.598Z,21.77
2022-12-19T16:52:13.348Z,18.80
2022-12-19T16:54:40.698Z,21.33
2022-12-19T16:57:16.432Z,21.30
2022-12-19T16:59:43.759Z,22.90
2022-12-19T17:02:26.375Z,18.47
2022-12-19T17:04:54.287Z,22.97
2022-12-19T17:07:21.682Z,22.93
2022-12-19T17:09:49.021Z,19.33
2022-12-19T17:12:18.217Z,23.10
2022-12-19T17:14:45.798Z,25.07
2022-12-19T17:17:14.777Z,21.07
2022-12-19T17:19:44.941Z,21.57
2022-12-19T17:22:12.721Z,24.03
2022-12-19T17:24:40.034Z,26.17
2022-12-19T17:27:07.336Z,24.37
2022-12-19T17:29:34.624Z,21.43
2022-12-19T17:32:02.011Z,20.33
2022-12-19T17:34:30.866Z,23.13
2022-12-19T17:36:59.842Z,27.30
2022-12-19T17:39:31.547Z,22.30
2022-12-19T17:42:01.416Z,24.17
2022-12-19T17:44:28.746Z,28.73
2022-12-19T17:46:56.109Z,23.47
2022-12-19T17:49:41.689Z,25.73
2022-12-19T17:52:14.353Z,23.13
2022-12-19T17:54:41.749Z,26.13
2022-12-19T17:57:18.383Z,28.10
2022-12-19T17:59:48.754Z,23.07
2022-12-19T18:02:25.164Z,23.77
2022-12-19T18:04:52.869Z,25.37
2022-12-19T18:07:20.464Z,24.17
2022-12-19T18:09:49.230Z,26.40
2022-12-19T18:12:16.503Z,23.90
2022-12-19T18:14:43.793Z,24.77
2022-12-19T18:17:12.842Z,24.23
2022-12-19T18:19:40.213Z,20.20
2022-12-19T18:22:13.243Z,24.03
2022-12-19T18:24:40.624Z,24.10
2022-12-19T18:27:07.938Z,24.17
2022-12-19T18:29:35.482Z,24.30
2022-12-19T18:32:02.764Z,20.63
2022-12-19T18:34:31.135Z,25.07
2022-12-19T18:36:58.449Z,23.93
2022-12-19T18:39:27.106Z,25.60
2022-12-19T18:41:54.898Z,19.93
2022-12-19T18:44:25.364Z,23.30
2022-12-19T18:46:53.313Z,19.57
2022-12-19T18:49:20.979Z,19.77
2022-12-19T18:51:49.909Z,17.47
2022-12-19T18:54:18.823Z,22.53
2022-12-19T18:56:47.193Z,23.60
2022-12-19T18:59:14.755Z,23.00
2022-12-19T19:01:43.213Z,19.17
2022-12-19T19:04:13.074Z,19.33
2022-12-19T19:06:46.685Z,16.20
2022-12-19T19:09:17.550Z,19.07
2022-12-19T19:11:56.187Z,19.17
2022-12-19T19:14:25.752Z,15.13
2022-12-19T19:16:53.131Z,18.67
2022-12-19T19:19:20.667Z,21.40
2022-12-19T19:21:48.056Z,21.87
2022-12-19T19:24:20.665Z,17.90
2022-12-19T19:26:48.365Z,20.37
2022-12-19T19:29:18.754Z,19.80
2022-12-19T19:31:47.281Z,19.27
2022-12-19T19:34:16.157Z,21.23
2022-12-19T19:36:45.012Z,18.83
2022-12-19T19:39:13.901Z,19.17
2022-12-19T19:41:41.564Z,16.00
2022-12-19T19:44:08.906Z,20.57
2022-12-19T19:46:37.420Z,22.87
2022-12-19T19:49:04.819Z,22.83
2022-12-19T19:51:32.452Z,24.50
2022-12-19T19:53:59.744Z,20.13
2022-12-19T19:56:27.272Z,21.97
2022-12-19T19:58:55.252Z,23.37
2022-12-19T20:01:22.709Z,22.70
2022-12-19T20:03:50.303Z,21.10
2022-12-19T20:06:19.213Z,20.93
2022-12-19T20:08:46.814Z,24.13
2022-12-19T20:11:14.395Z,19.73
2022-12-19T20:13:41.660Z,19.43
2022-12-19T20:16:11.085Z,17.97
2022-12-19T20:18:39.922Z,18.03
2022-12-19T20:21:13.589Z,15.93
2022-12-19T20:23:41.992Z,16.93
2022-12-19T20:26:09.659Z,23.80
2022-12-19T20:28:41.001Z,19.60
2022-12-19T20:31:13.178Z,17.27
2022-12-19T20:33:41.012Z,14.83
2022-12-19T20:36:10.068Z,14.63
2022-12-19T20:38:37.495Z,17.80
2022-12-19T20:41:04.944Z,17.43
2022-12-19T20:43:32.388Z,16.63
2022-12-19T20:46:07.654Z,17.13
2022-12-19T20:48:35.057Z,15.27
2022-12-19T20:51:04.511Z,16.80
2022-12-19T20:53:32.755Z,16.57
2022-12-19T20:56:00.816Z,12.77
2022-12-19T20:58:28.918Z,19.10
2022-12-19T21:00:56.931Z,19.17
2022-12-19T21:03:29.326Z,14.63
2022-12-19T21:05:57.314Z,17.00
2022-12-19T21:08:25.428Z,13.87
2022-12-19T21:10:52.838Z,14.70
2022-12-19T21:13:20.372Z,15.73
2022-12-19T21:15:52.312Z,17.70
2022-12-19T21:18:19.846Z,13.33
2022-12-19T21:20:47.175Z,16.10
2022-12-19T21:23:14.716Z,15.87
2022-12-19T21:25:42.126Z,15.00
2022-12-19T21:28:10.192Z,15.07
2022-12-19T21:30:37.815Z,20.63
2022-12-19T21:33:05.351Z,13.20
2022-12-19T21:35:34.689Z,12.57
2022-12-19T21:38:02.384Z,14.00
2022-12-19T21:40:29.758Z,16.93
2022-12-19T21:42:57.017Z,14.37
2022-12-19T21:45:24.335Z,14.63
2022-12-19T21:47:51.650Z,13.43
2022-12-19T21:50:18.990Z,14.33
2022-12-19T21:52:48.189Z,15.97
2022-12-19T21:55:17.449Z,14.10
2022-12-19T21:57:44.704Z,12.77
2022-12-19T22:00:13.358Z,17.17
2022-12-19T22:02:50.816Z,14.47
2022-12-19T22:05:27.985Z,17.67
2022-12-19T22:07:55.265Z,17.27
2022-12-19T22:10:22.620Z,20.83
2022-12-19T22:12:49.962Z,17.90
2022-12-19T22:15:17.237Z,17.37
2022-12-19T22:17:44.652Z,17.73
2022-12-19T22:20:11.961Z,18.70
2022-12-19T22:22:39.358Z,15.87
2022-12-19T22:25:06.879Z,12.70
2022-12-19T22:27:34.173Z,16.07
2022-12-19T22:30:06.706Z,16.27
2022-12-19T22:32:38.097Z,15.83
2022-12-19T22:35:07.903Z,20.63
2022-12-19T22:37:35.262Z,17.13
2022-12-19T22:40:04.065Z,19.37
2022-12-19T22:42:31.429Z,17.40
2022-12-19T22:44:59.316Z,17.83
2022-12-19T22:47:26.691Z,14.43
2022-12-19T22:49:54.016Z,18.70
2022-12-19T22:52:21.356Z,14.40
2022-12-19T22:54:48.653Z,18.70
2022-12-19T22:57:16.017Z,17.07
2022-12-19T22:59:43.378Z,18.53
2022-12-19T23:02:10.949Z,16.67
2022-12-19T23:04:38.579Z,16.73
2022-12-19T23:07:05.875Z,20.30
2022-12-19T23:09:33.199Z,22.00
2022-12-19T23:12:00.498Z,19.40
2022-12-19T23:14:27.786Z,16.30
2022-12-19T23:16:55.134Z,16.90
2022-12-19T23:19:22.453Z,17.50
2022-12-19T23:21:49.767Z,16.77
2022-12-19T23:24:20.597Z,16.97
2022-12-19T23:26:47.904Z,13.30
2022-12-19T23:29:16.088Z,16.63
2022-12-19T23:31:44.904Z,21.53
2022-12-19T23:34:12.679Z,16.87
2022-12-19T23:39:27.507Z,16.23
2022-12-19T23:41:54.804Z,15.63
2022-12-19T23:44:22.408Z,18.47
2022-12-19T23:46:49.682Z,11.70
2022-12-19T23:49:17.024Z,13.70
2022-12-19T23:51:44.333Z,14.40
2022-12-19T23:54:11.598Z,15.23
2022-12-19T23:56:38.992Z,13.83
2022-12-19T23:59:06.404Z,14.87
